Kezdőlap
METAR-TAF:

METAR-TAF

Repülőterek :

Guilin, Kína

földrajzi szélesség: 25-20N, földrajzi hosszúság: 110-18E, magasság: 166 m

Jelenlegi meteorológiai megfigyelések

A jelentés 15 perccel ezelõtt készült, 17:00 UTC
Különbözõ irányokból fújó szél 4 kt
Hőmérséklet 26°C
Páratartalom 84%
Légköri nyomás 1003 hPa
Látótávolság 10 km, vagy több
felhőtlen 1500 m magasságban, és nincs gomolyfelhõ

METAR: ZGKL 171700Z VRB02MPS CAVOK 26/23 Q1003 NOSIG

Idő: 01:15 (17:15 UTC)

Előrejelzés

A jelentés 8 órával és 4 perccel ezelõtt készült, 09:11 UTC
Az előrejelzés 17-én 12 óra UTC és 18-én 12 óra UTC között érvényes
Északkeleti szél 8 kt
Látótávolság 10 km, vagy több
Szórványos felhőzet 5000 lábon

TAF: ZGKL 170911Z 1712/1812 05004MPS 9999 SCT050 TX35/1807Z TN24/1722Z

Meteorológiai megfigyelések és előrejelzések több, mint 4000 repülőtéren (METAR és TAF jelentéseket).

A térképen piros és sárga pontok jelzik az elérhető meteorológiai állomásokat.

Mozgassa az egeret a pont fölött, hogy megjelenjen az állomás neve.

Azután kattintson az időjárási megfigyelések és előrejelzések megtekintéséhez.

A térkép megváltoztatása: kattintson a fekete keresztel jelölt zöld gombra ráközelítéshez, a vonallal jelölt zöld gombra távolításhoz, vagy a zöld nyilakra a szomszédos térképek eléréséhez.


METAR-TAF: